SAST/TTG METAR and TAF weather

Enter ICAO airport designator
Station Type Date Time Source
SAST METAR 2019/05/18 19:38 UTC NOAA

SAST 181938Z 18008KT 5000 -DZ SCT010 OVC020 18/16 Q1012


Station Type Date Time Source
SAST Decoded METAR 2019/05/18 19:38 UTC NOAA

Tartagal Aerodrome, Argentina (SAST) 22-39S 063-49W 450M
May 18, 2019 - 03:38 PM EDT / 2019.05.18 1938 UTC
Wind: from the S (180 degrees) at 9 MPH (8 KT):0
Visibility: 3 mile(s):0
Sky conditions: overcast
Weather: light drizzle
Temperature: 64 F (18 C)
Dew Point: 60 F (16 C)
Relative Humidity: 88%
Pressure (altimeter): 29.88 in. Hg (1012 hPa)
ob: SAST 181938Z 18008KT 5000 -DZ SCT010 OVC020 18/16 Q1012
cycle: 19

Station Type Date Time Source
SAST TAF UTC NOAA

Error!

Example: see airport list